Time;durP1;ratioP1;P1;durP2;ratioP2;P2;SDS_P1;SDS_P2;PMS_P1;PMS_P2;Temp;Humidity;BMP_temperature;BMP_pressure;BME280_temperature;BME280_humidity;BME280_pressure;Samples;Min_cycle;Max_cycle;Signal;HPM_P1;HPM_P2
2020/12/30 00:02:14;;;;;;;40.33;18.57;;;;;;;;;;5092231;28;20024;-60
2020/12/30 00:04:40;;;;;;;41.60;19.83;;;;;;;;;;5091785;28;20028;-54
2020/12/30 00:07:05;;;;;;;41.03;18.75;;;;;;;;;;5073735;28;20047;-59
2020/12/30 00:09:30;;;;;;;45.23;20.57;;;;;;;;;;5074447;28;20036;-60
2020/12/30 00:11:56;;;;;;;51.17;19.43;;;;;;;;;;5091628;28;20034;-61
2020/12/30 00:14:21;;;;;;;39.40;19.07;;;;;;;;;;5073885;28;20096;-60
2020/12/30 00:16:46;;;;;;;46.57;20.73;;;;;;;;;;5091441;28;20020;-60
2020/12/30 00:19:12;;;;;;;47.20;20.03;;;;;;;;;;5091714;28;20470;-60
2020/12/30 00:21:37;;;;;;;36.40;18.97;;;;;;;;;;5073308;28;20024;-61
2020/12/30 00:24:02;;;;;;;39.40;18.57;;;;;;;;;;5090805;28;20016;-59
2020/12/30 00:26:28;;;;;;;40.97;20.03;;;;;;;;;;5091453;28;20024;-59
2020/12/30 00:28:53;;;;;;;47.47;20.13;;;;;;;;;;5091128;28;20364;-61
2020/12/30 00:31:18;;;;;;;45.30;20.47;;;;;;;;;;5092164;28;20103;-61
2020/12/30 00:33:44;;;;;;;42.33;21.90;;;;;;;;;;5091433;28;20016;-59
2020/12/30 00:36:09;;;;;;;44.13;19.70;;;;;;;;;;5092303;28;20063;-60
2020/12/30 00:38:35;;;;;;;51.57;22.07;;;;;;;;;;5092322;28;20391;-62
2020/12/30 00:41:00;;;;;;;35.77;17.53;;;;;;;;;;5073394;28;20081;-59
2020/12/30 00:43:25;;;;;;;46.60;20.50;;;;;;;;;;5092595;28;20040;-59
2020/12/30 00:45:51;;;;;;;49.17;19.97;;;;;;;;;;5091579;28;20379;-59
2020/12/30 00:48:16;;;;;;;41.47;19.10;;;;;;;;;;5091622;28;20035;-60
2020/12/30 00:50:41;;;;;;;48.07;19.80;;;;;;;;;;5091893;28;20032;-60
2020/12/30 00:53:07;;;;;;;46.77;22.07;;;;;;;;;;5090689;28;20460;-61
2020/12/30 00:55:32;;;;;;;43.30;21.13;;;;;;;;;;5073578;28;20028;-60
2020/12/30 00:58:20;;;;;;;46.80;20.85;;;;;;;;;;5059909;28;20051;-59
2020/12/30 01:00:47;;;;;;;47.35;21.73;;;;;;;;;;5072966;28;20059;-59
2020/12/30 01:03:41;;;;;;;44.58;21.48;;;;;;;;;;5077388;28;20039;-61
2020/12/30 01:06:10;;;;;;;51.90;21.20;;;;;;;;;;5090993;28;20464;-60
2020/12/30 01:08:35;;;;;;;54.88;22.83;;;;;;;;;;5091651;28;20032;-60
2020/12/30 01:11:00;;;;;;;48.27;21.73;;;;;;;;;;5090951;28;20472;-60
2020/12/30 01:13:26;;;;;;;49.03;23.43;;;;;;;;;;5073287;28;20468;-59
2020/12/30 01:15:51;;;;;;;50.63;21.57;;;;;;;;;;5090900;28;20159;-59
2020/12/30 01:18:16;;;;;;;45.30;21.60;;;;;;;;;;5091441;28;20036;-60
2020/12/30 01:20:42;;;;;;;45.60;20.30;;;;;;;;;;5091768;28;20091;-60
2020/12/30 01:23:07;;;;;;;45.63;20.63;;;;;;;;;;5090827;28;20028;-60
2020/12/30 01:25:32;;;;;;;45.37;21.43;;;;;;;;;;5091460;28;20170;-60
2020/12/30 01:27:58;;;;;;;43.17;21.33;;;;;;;;;;5072625;28;20039;-60
2020/12/30 01:30:23;;;;;;;39.47;19.63;;;;;;;;;;5091460;28;20064;-60
2020/12/30 01:32:49;;;;;;;50.53;22.40;;;;;;;;;;5072818;28;20433;-58
2020/12/30 01:35:14;;;;;;;45.80;22.97;;;;;;;;;;5091457;28;20065;-60
2020/12/30 01:37:40;;;;;;;48.07;22.97;;;;;;;;;;5091312;28;20429;-60
2020/12/30 01:40:06;;;;;;;48.10;22.05;;;;;;;;;;5055777;28;20376;-60
2020/12/30 01:42:44;;;;;;;49.33;21.77;;;;;;;;;;5091128;28;20075;-59
2020/12/30 01:45:09;;;;;;;41.42;19.65;;;;;;;;;;5090482;28;20032;-60
2020/12/30 01:47:35;;;;;;;55.00;22.40;;;;;;;;;;5091138;28;20039;-58
2020/12/30 01:50:00;;;;;;;47.50;20.98;;;;;;;;;;5090106;28;20475;-59
2020/12/30 01:52:26;;;;;;;43.40;21.17;;;;;;;;;;5072615;28;20103;-60
2020/12/30 01:54:51;;;;;;;45.47;21.77;;;;;;;;;;5090328;28;20059;-60
2020/12/30 01:57:17;;;;;;;50.80;22.47;;;;;;;;;;5072924;28;20036;-61
2020/12/30 01:59:42;;;;;;;41.05;20.98;;;;;;;;;;5090677;28;20429;-59
2020/12/30 02:02:11;;;;;;;47.20;22.47;;;;;;;;;;5072236;28;20028;-61
2020/12/30 02:04:42;;;;;;;53.85;22.30;;;;;;;;;;5091945;28;20039;-60
2020/12/30 02:07:07;;;;;;;55.95;21.60;;;;;;;;;;5075081;28;20116;-60
2020/12/30 02:09:32;;;;;;;44.20;21.53;;;;;;;;;;5094507;28;20031;-59
2020/12/30 02:11:58;;;;;;;46.13;24.83;;;;;;;;;;5093929;28;20028;-59
2020/12/30 02:14:24;;;;;;;44.15;20.20;;;;;;;;;;5094579;28;20360;-60
2020/12/30 02:16:53;;;;;;;45.60;20.93;;;;;;;;;;5094447;28;20447;-60
2020/12/30 02:19:19;;;;;;;48.05;21.88;;;;;;;;;;5094281;28;20447;-60
2020/12/30 02:21:44;;;;;;;41.65;19.92;;;;;;;;;;5075621;28;20060;-61
2020/12/30 02:24:36;;;;;;;50.87;21.00;;;;;;;;;;5093688;28;20024;-61
2020/12/30 02:27:03;;;;;;;42.85;20.83;;;;;;;;;;5069977;28;20104;-60
2020/12/30 02:29:28;;;;;;;48.40;21.23;;;;;;;;;;5089681;28;20032;-61
2020/12/30 02:31:54;;;;;;;41.55;20.42;;;;;;;;;;5073278;28;20032;-59
2020/12/30 02:34:19;;;;;;;41.27;18.40;;;;;;;;;;5089500;28;20025;-60
2020/12/30 02:36:45;;;;;;;36.30;19.25;;;;;;;;;;5092671;28;20032;-61
2020/12/30 02:39:11;;;;;;;40.00;19.43;;;;;;;;;;5093696;28;20024;-60
2020/12/30 02:41:36;;;;;;;39.78;19.67;;;;;;;;;;5076162;28;20075;-60
2020/12/30 02:44:02;;;;;;;38.57;19.07;;;;;;;;;;5093310;28;20425;-60
2020/12/30 02:46:27;;;;;;;39.95;19.08;;;;;;;;;;5075644;28;20031;-60
2020/12/30 02:48:53;;;;;;;40.23;19.37;;;;;;;;;;5093501;28;20035;-60
2020/12/30 02:51:18;;;;;;;36.50;17.97;;;;;;;;;;5093334;28;20028;-60
2020/12/30 02:53:44;;;;;;;36.83;18.30;;;;;;;;;;5075339;28;20031;-61
2020/12/30 02:56:09;;;;;;;43.37;19.90;;;;;;;;;;5093134;28;20036;-60
2020/12/30 02:58:34;;;;;;;34.90;16.47;;;;;;;;;;5093909;28;20455;-61
2020/12/30 03:01:00;;;;;;;48.50;19.87;;;;;;;;;;5093048;28;20040;-60
2020/12/30 03:03:25;;;;;;;45.93;20.77;;;;;;;;;;5075387;28;20466;-61
2020/12/30 03:05:51;;;;;;;37.67;16.60;;;;;;;;;;5092832;28;20019;-60
2020/12/30 03:08:16;;;;;;;40.90;19.30;;;;;;;;;;5072780;28;20060;-59
2020/12/30 03:10:42;;;;;;;41.50;19.73;;;;;;;;;;5088642;28;20032;-60
2020/12/30 03:13:07;;;;;;;40.73;19.67;;;;;;;;;;5054644;28;20483;-61
2020/12/30 03:15:32;;;;;;;45.83;21.07;;;;;;;;;;5072822;28;20406;-61
2020/12/30 03:17:58;;;;;;;43.03;22.27;;;;;;;;;;5072637;28;20107;-60
2020/12/30 03:20:23;;;;;;;48.33;20.57;;;;;;;;;;5072824;28;20025;-60
2020/12/30 03:22:48;;;;;;;44.33;21.33;;;;;;;;;;5072992;28;20024;-60
2020/12/30 03:25:13;;;;;;;46.47;21.67;;;;;;;;;;5087639;28;20108;-61
2020/12/30 03:27:39;;;;;;;43.50;21.67;;;;;;;;;;5072470;28;20047;-61
2020/12/30 03:30:04;;;;;;;52.47;23.70;;;;;;;;;;5071942;28;20074;-61
2020/12/30 03:32:30;;;;;;;45.25;20.55;;;;;;;;;;5072597;28;20029;-60
2020/12/30 03:34:55;;;;;;;46.90;22.47;;;;;;;;;;5072714;28;20036;-60
2020/12/30 03:37:21;;;;;;;53.80;25.60;;;;;;;;;;5071928;28;20033;-60
2020/12/30 03:39:46;;;;;;;52.10;22.53;;;;;;;;;;5072365;28;20033;-61
2020/12/30 03:42:11;;;;;;;52.50;23.63;;;;;;;;;;5071675;28;20029;-61
2020/12/30 03:44:37;;;;;;;55.30;24.93;;;;;;;;;;5072285;28;20144;-60
2020/12/30 03:47:04;;;;;;;50.47;22.13;;;;;;;;;;5071524;28;20119;-60
2020/12/30 03:49:30;;;;;;;52.75;25.20;;;;;;;;;;5072100;28;20021;-60
2020/12/30 03:51:59;;;;;;;57.53;25.10;;;;;;;;;;5054287;28;20387;-60
2020/12/30 03:54:28;;;;;;;50.35;24.05;;;;;;;;;;5071966;28;20063;-60
2020/12/30 03:56:53;;;;;;;54.42;24.52;;;;;;;;;;5072231;28;20040;-61
2020/12/30 03:59:19;;;;;;;57.93;24.87;;;;;;;;;;5071600;28;20117;-59
2020/12/30 04:01:44;;;;;;;50.90;24.53;;;;;;;;;;5072376;28;20367;-60
2020/12/30 04:04:11;;;;;;;51.60;24.97;;;;;;;;;;5071166;28;20438;-60
2020/12/30 04:06:37;;;;;;;50.88;24.13;;;;;;;;;;5071394;28;20057;-59
2020/12/30 04:09:02;;;;;;;62.13;26.67;;;;;;;;;;5053738;28;20370;-58
2020/12/30 04:11:27;;;;;;;51.70;23.43;;;;;;;;;;5055802;28;20495;-61
2020/12/30 04:13:53;;;;;;;54.87;25.23;;;;;;;;;;5080758;28;20158;-60
2020/12/30 04:16:22;;;;;;;50.23;23.73;;;;;;;;;;5091506;28;20024;-60
2020/12/30 04:18:47;;;;;;;65.05;26.23;;;;;;;;;;5092014;28;20443;-60
2020/12/30 04:21:16;;;;;;;50.57;21.73;;;;;;;;;;5091445;28;20024;-59
2020/12/30 04:23:42;;;;;;;58.10;25.30;;;;;;;;;;5073905;28;20024;-60
2020/12/30 04:26:07;;;;;;;54.47;24.07;;;;;;;;;;5091209;28;20430;-60
2020/12/30 04:28:33;;;;;;;54.87;25.70;;;;;;;;;;5091621;28;20361;-59
2020/12/30 04:30:58;;;;;;;52.90;25.90;;;;;;;;;;5092013;28;20038;-60
2020/12/30 04:33:23;;;;;;;54.13;24.80;;;;;;;;;;5091164;28;20553;-60
2020/12/30 04:35:49;;;;;;;56.00;26.07;;;;;;;;;;5091909;28;20059;-60
2020/12/30 04:38:14;;;;;;;52.37;26.07;;;;;;;;;;5053228;28;20021;-60
2020/12/30 04:40:40;;;;;;;61.20;26.93;;;;;;;;;;5054251;28;20050;-59
2020/12/30 04:43:06;;;;;;;49.15;23.30;;;;;;;;;;5071083;28;20063;-59
2020/12/30 04:45:32;;;;;;;53.90;25.83;;;;;;;;;;5053153;28;20056;-60
2020/12/30 04:47:57;;;;;;;58.03;26.83;;;;;;;;;;5071310;28;20033;-59
2020/12/30 04:50:23;;;;;;;60.70;26.57;;;;;;;;;;5086172;28;20035;-59
2020/12/30 04:52:48;;;;;;;45.40;23.97;;;;;;;;;;5070958;28;20028;-61
2020/12/30 04:55:16;;;;;;;56.45;26.95;;;;;;;;;;5052743;28;20028;-60
2020/12/30 04:57:50;;;;;;;53.55;24.83;;;;;;;;;;5036588;28;20476;-61
2020/12/30 05:00:15;;;;;;;51.78;25.33;;;;;;;;;;5052573;28;20029;-60
2020/12/30 05:02:46;;;;;;;53.93;27.13;;;;;;;;;;5086717;28;20078;-59
2020/12/30 05:05:13;;;;;;;55.00;25.65;;;;;;;;;;5070570;28;20048;-60
2020/12/30 05:07:40;;;;;;;52.20;24.42;;;;;;;;;;5070932;28;20067;-60
2020/12/30 05:10:05;;;;;;;51.08;24.67;;;;;;;;;;5070970;28;20078;-60
2020/12/30 05:12:30;;;;;;;53.07;24.80;;;;;;;;;;5070074;28;20024;-60
2020/12/30 05:14:56;;;;;;;48.17;24.53;;;;;;;;;;5070883;28;20040;-60
2020/12/30 05:17:21;;;;;;;54.50;25.73;;;;;;;;;;5052206;28;20032;-59
2020/12/30 05:19:47;;;;;;;40.07;20.07;;;;;;;;;;5070709;28;20035;-60
2020/12/30 05:22:18;;;;;;;52.53;26.23;;;;;;;;;;5070054;28;20392;-59
2020/12/30 05:24:45;;;;;;;54.97;26.45;;;;;;;;;;5086225;28;20046;-60
2020/12/30 05:27:11;;;;;;;50.13;24.92;;;;;;;;;;5070073;28;20044;-58
2020/12/30 05:29:39;;;;;;;54.20;25.42;;;;;;;;;;5070521;28;20028;-60
2020/12/30 05:32:05;;;;;;;51.20;24.88;;;;;;;;;;5070767;28;20032;-59
2020/12/30 05:34:30;;;;;;;54.77;25.40;;;;;;;;;;5070272;28;20361;-60
2020/12/30 05:36:56;;;;;;;52.83;26.20;;;;;;;;;;5070696;28;20060;-60
2020/12/30 05:39:22;;;;;;;54.00;27.20;;;;;;;;;;5072708;28;20253;-60
2020/12/30 05:41:47;;;;;;;56.33;26.55;;;;;;;;;;5074539;28;20520;-61
2020/12/30 05:44:17;;;;;;;62.33;27.00;;;;;;;;;;5089745;28;20060;-60
2020/12/30 05:46:42;;;;;;;55.63;26.58;;;;;;;;;;5074734;28;20033;-60
2020/12/30 05:49:07;;;;;;;54.40;25.87;;;;;;;;;;5074633;28;20028;-61
2020/12/30 05:51:32;;;;;;;48.20;23.83;;;;;;;;;;5074023;28;20029;-60
2020/12/30 05:54:08;;;;;;;51.37;24.93;;;;;;;;;;5074180;28;20082;-60
2020/12/30 05:56:34;;;;;;;48.53;23.35;;;;;;;;;;5073742;28;20043;-62
2020/12/30 05:59:00;;;;;;;49.25;24.95;;;;;;;;;;5074495;28;20376;-60
2020/12/30 06:01:27;;;;;;;46.90;22.85;;;;;;;;;;5073580;28;20051;-59
2020/12/30 06:03:53;;;;;;;57.15;26.15;;;;;;;;;;5074029;28;20056;-61
2020/12/30 06:06:19;;;;;;;45.80;22.73;;;;;;;;;;5073209;28;20105;-61
2020/12/30 06:08:45;;;;;;;61.13;27.13;;;;;;;;;;5097698;28;20051;-60
2020/12/30 06:11:11;;;;;;;45.70;23.87;;;;;;;;;;5094192;28;20028;-59
2020/12/30 06:13:38;;;;;;;44.75;23.63;;;;;;;;;;5093184;28;20024;-60
2020/12/30 06:16:06;;;;;;;44.40;22.52;;;;;;;;;;5075655;28;20100;-61
2020/12/30 06:18:36;;;;;;;47.22;23.42;;;;;;;;;;5093334;28;20051;-61
2020/12/30 06:21:04;;;;;;;41.75;21.42;;;;;;;;;;5075720;28;20111;-58
2020/12/30 06:23:34;;;;;;;46.60;21.90;;;;;;;;;;5092911;28;20401;-59
2020/12/30 06:26:03;;;;;;;49.00;23.15;;;;;;;;;;5093350;28;20024;-60
2020/12/30 06:28:31;;;;;;;47.45;23.35;;;;;;;;;;5072350;28;20032;-60
2020/12/30 06:30:56;;;;;;;44.58;22.80;;;;;;;;;;5093617;28;20376;-60
2020/12/30 06:33:22;;;;;;;42.60;21.93;;;;;;;;;;5092771;28;20032;-60
2020/12/30 06:35:53;;;;;;;48.40;22.83;;;;;;;;;;5056414;28;20471;-59
2020/12/30 06:38:19;;;;;;;48.40;25.15;;;;;;;;;;5092815;28;20027;-59
2020/12/30 06:40:57;;;;;;;45.17;21.27;;;;;;;;;;5091100;28;20024;-60
2020/12/30 06:43:38;;;;;;;50.75;24.50;;;;;;;;;;5093098;28;20257;-60
2020/12/30 06:46:03;;;;;;;54.15;24.88;;;;;;;;;;5075055;28;20039;-60
2020/12/30 06:48:29;;;;;;;51.77;25.23;;;;;;;;;;5092855;28;20028;-59
2020/12/30 06:50:54;;;;;;;54.23;24.30;;;;;;;;;;5071855;28;20104;-60
2020/12/30 06:53:27;;;;;;;60.60;24.63;;;;;;;;;;5092331;28;20035;-58
2020/12/30 06:55:53;;;;;;;48.58;23.55;;;;;;;;;;5093515;28;20035;-59
2020/12/30 06:58:36;;;;;;;53.67;23.80;;;;;;;;;;5092189;28;20409;-60
2020/12/30 07:01:02;;;;;;;43.05;22.40;;;;;;;;;;5090669;28;20055;-59
2020/12/30 07:03:31;;;;;;;46.07;23.30;;;;;;;;;;5092791;28;20433;-59
2020/12/30 07:06:17;;;;;;;48.65;25.02;;;;;;;;;;5092447;28;20020;-60
2020/12/30 07:08:42;;;;;;;52.67;22.55;;;;;;;;;;5089711;28;20040;-60
2020/12/30 07:11:07;;;;;;;51.63;24.67;;;;;;;;;;5092998;28;20024;-60
2020/12/30 07:13:42;;;;;;;50.90;23.67;;;;;;;;;;5092484;28;20080;-61
2020/12/30 07:16:17;;;;;;;53.65;28.10;;;;;;;;;;5072972;28;20072;-60
2020/12/30 07:18:43;;;;;;;51.45;25.55;;;;;;;;;;5089618;28;20016;-57
2020/12/30 07:21:12;;;;;;;47.05;22.88;;;;;;;;;;5074418;28;20023;-60
2020/12/30 07:23:37;;;;;;;40.90;20.95;;;;;;;;;;5074377;28;20035;-60
2020/12/30 07:26:03;;;;;;;43.03;21.40;;;;;;;;;;5092191;28;20036;-60
2020/12/30 07:28:29;;;;;;;49.40;22.20;;;;;;;;;;5092251;28;20091;-59
2020/12/30 07:30:55;;;;;;;50.97;21.75;;;;;;;;;;5092706;28;20416;-59
2020/12/30 07:33:20;;;;;;;44.23;21.63;;;;;;;;;;5091889;28;20016;-54
2020/12/30 07:35:46;;;;;;;45.47;22.83;;;;;;;;;;5073623;28;20031;-59
2020/12/30 07:38:12;;;;;;;44.15;22.33;;;;;;;;;;5092550;28;20039;-59
2020/12/30 07:40:37;;;;;;;53.97;23.98;;;;;;;;;;5091782;28;20058;-60
2020/12/30 07:43:03;;;;;;;49.23;25.00;;;;;;;;;;5092332;28;20047;-60
2020/12/30 07:45:28;;;;;;;52.17;25.13;;;;;;;;;;5091174;28;20106;-60
2020/12/30 07:47:53;;;;;;;49.47;23.70;;;;;;;;;;5092189;28;20086;-60
2020/12/30 07:50:19;;;;;;;49.87;24.83;;;;;;;;;;5091782;28;20060;-60
2020/12/30 07:52:49;;;;;;;56.93;27.27;;;;;;;;;;5090421;28;20070;-60
2020/12/30 07:55:23;;;;;;;49.25;25.65;;;;;;;;;;5092263;28;20097;-60
2020/12/30 07:57:54;;;;;;;49.67;24.30;;;;;;;;;;5091491;28;20038;-60
2020/12/30 08:00:19;;;;;;;49.75;26.23;;;;;;;;;;5092315;28;20023;-60
2020/12/30 08:02:45;;;;;;;52.77;23.67;;;;;;;;;;5091618;28;20528;-60
2020/12/30 08:05:10;;;;;;;52.27;26.63;;;;;;;;;;5091086;28;20492;-60
2020/12/30 08:07:35;;;;;;;50.73;23.73;;;;;;;;;;5090445;28;20098;-60
2020/12/30 08:10:01;;;;;;;46.03;23.20;;;;;;;;;;5090949;28;20040;-59
2020/12/30 08:12:26;;;;;;;50.77;24.57;;;;;;;;;;5090527;28;20107;-59
2020/12/30 08:14:52;;;;;;;47.43;23.80;;;;;;;;;;5073329;28;20113;-58
2020/12/30 08:17:19;;;;;;;50.70;22.85;;;;;;;;;;5091556;28;20184;-60
2020/12/30 08:19:48;;;;;;;53.33;26.27;;;;;;;;;;5090788;28;20084;-61
2020/12/30 08:22:14;;;;;;;51.90;25.63;;;;;;;;;;5091707;28;20131;-60
2020/12/30 08:24:39;;;;;;;43.20;20.87;;;;;;;;;;5070421;28;20147;-60
2020/12/30 08:27:05;;;;;;;55.13;26.03;;;;;;;;;;5091569;28;20107;-60
2020/12/30 08:29:35;;;;;;;49.88;23.95;;;;;;;;;;5090992;28;20108;-61
2020/12/30 08:32:01;;;;;;;51.00;24.77;;;;;;;;;;5091452;28;20086;-60
2020/12/30 08:34:27;;;;;;;;;;;;;;;;;;5091644;28;20047;-60
2020/12/30 08:37:00;;;;;;;45.33;22.17;;;;;;;;;;5091440;28;19904;-61
2020/12/30 08:39:25;;;;;;;47.15;22.88;;;;;;;;;;5085304;28;20447;-55
2020/12/30 08:41:52;;;;;;;43.50;22.23;;;;;;;;;;5090890;28;20149;-61
2020/12/30 08:44:19;;;;;;;45.50;23.52;;;;;;;;;;5091089;28;20051;-60
2020/12/30 08:46:48;;;;;;;50.38;24.45;;;;;;;;;;5072454;28;20040;-61
2020/12/30 08:49:13;;;;;;;40.65;20.73;;;;;;;;;;5091713;28;20107;-60
2020/12/30 08:51:41;;;;;;;46.25;23.35;;;;;;;;;;5090886;28;20063;-61
2020/12/30 08:54:13;;;;;;;50.65;24.73;;;;;;;;;;5090706;28;20039;-59
2020/12/30 08:56:39;;;;;;;46.30;24.27;;;;;;;;;;5072421;28;20042;-61
2020/12/30 08:59:05;;;;;;;47.85;22.30;;;;;;;;;;5090604;28;20036;-61
2020/12/30 09:01:30;;;;;;;45.63;22.83;;;;;;;;;;5090471;28;20031;-62
2020/12/30 09:04:09;;;;;;;47.80;23.90;;;;;;;;;;5089998;28;20063;-59
2020/12/30 09:06:35;;;;;;;53.47;24.23;;;;;;;;;;5072037;28;20052;-60
2020/12/30 09:09:10;;;;;;;48.57;22.57;;;;;;;;;;5090412;28;20036;-59
2020/12/30 09:11:36;;;;;;;52.78;22.73;;;;;;;;;;5072619;28;20036;-59
2020/12/30 09:14:15;;;;;;;45.08;22.13;;;;;;;;;;5090198;28;20383;-61
2020/12/30 09:17:11;;;;;;;48.67;21.88;;;;;;;;;;5072443;28;20024;-59
2020/12/30 09:19:36;;;;;;;60.95;23.70;;;;;;;;;;5069590;28;20044;-59
2020/12/30 09:22:08;;;;;;;48.50;22.60;;;;;;;;;;5105463;28;20031;-60
2020/12/30 09:24:35;;;;;;;45.00;23.27;;;;;;;;;;5090018;28;20260;-59
2020/12/30 09:27:14;;;;;;;45.35;21.83;;;;;;;;;;5072213;28;20085;-58
2020/12/30 09:29:39;;;;;;;44.85;22.33;;;;;;;;;;5090385;28;20472;-57
2020/12/30 09:32:04;;;;;;;50.03;23.70;;;;;;;;;;5071997;28;20032;-60
2020/12/30 09:34:30;;;;;;;50.20;23.60;;;;;;;;;;5071969;28;20024;-61
2020/12/30 09:36:56;;;;;;;54.73;23.70;;;;;;;;;;5090157;28;20391;-60
2020/12/30 09:39:22;;;;;;;46.72;23.70;;;;;;;;;;5090660;28;20413;-59
2020/12/30 09:41:48;;;;;;;46.97;23.13;;;;;;;;;;5089890;28;20147;-58
2020/12/30 09:44:13;;;;;;;46.10;21.70;;;;;;;;;;5089711;28;20486;-61
2020/12/30 09:46:49;;;;;;;48.13;21.87;;;;;;;;;;5089734;28;20020;-60
2020/12/30 09:49:14;;;;;;;41.40;21.95;;;;;;;;;;5090901;28;20048;-59
2020/12/30 09:51:40;;;;;;;43.43;23.93;;;;;;;;;;5089984;28;20024;-61
2020/12/30 09:54:05;;;;;;;42.77;20.53;;;;;;;;;;5072521;28;20028;-59
2020/12/30 09:56:30;;;;;;;42.53;21.17;;;;;;;;;;5090019;28;20444;-58
2020/12/30 09:58:56;;;;;;;44.97;21.60;;;;;;;;;;5071704;28;20541;-60
2020/12/30 10:01:21;;;;;;;38.07;16.57;;;;;;;;;;5090400;28;20028;-60
2020/12/30 10:03:47;;;;;;;45.37;21.97;;;;;;;;;;5089243;28;20035;-61
2020/12/30 10:06:12;;;;;;;51.10;23.00;;;;;;;;;;5090476;28;20482;-60
2020/12/30 10:08:39;;;;;;;50.00;22.80;;;;;;;;;;5089620;28;20020;-60
2020/12/30 10:11:04;;;;;;;45.15;23.73;;;;;;;;;;5091056;28;20039;-60
2020/12/30 10:13:30;;;;;;;46.37;23.53;;;;;;;;;;5072400;28;20032;-60
2020/12/30 10:15:55;;;;;;;46.73;24.43;;;;;;;;;;5089866;28;20039;-61
2020/12/30 10:18:20;;;;;;;51.03;25.10;;;;;;;;;;5090390;28;20064;-59
2020/12/30 10:20:46;;;;;;;37.20;18.40;;;;;;;;;;5089736;28;20043;-60
2020/12/30 10:23:11;;;;;;;44.40;21.53;;;;;;;;;;5090270;28;20356;-61
2020/12/30 10:25:36;;;;;;;46.37;22.63;;;;;;;;;;5090939;28;20039;-60
2020/12/30 10:28:02;;;;;;;45.30;23.40;;;;;;;;;;5093717;28;20488;-60
2020/12/30 10:30:27;;;;;;;43.90;22.77;;;;;;;;;;5093973;28;20329;-60
2020/12/30 10:32:52;;;;;;;48.77;23.00;;;;;;;;;;5092858;28;20081;-61
2020/12/30 10:35:18;;;;;;;49.57;22.83;;;;;;;;;;5075782;28;20479;-60
2020/12/30 10:37:43;;;;;;;47.30;24.07;;;;;;;;;;5092769;28;20024;-60
2020/12/30 10:40:08;;;;;;;41.47;22.20;;;;;;;;;;5093742;28;20108;-60
2020/12/30 10:42:34;;;;;;;47.20;20.23;;;;;;;;;;5092574;28;20032;-58
2020/12/30 10:44:59;;;;;;;40.37;21.50;;;;;;;;;;5093296;28;20119;-60
2020/12/30 10:47:24;;;;;;;32.53;17.47;;;;;;;;;;5093430;28;20024;-59
2020/12/30 10:49:50;;;;;;;28.97;15.23;;;;;;;;;;5092735;28;20039;-59
2020/12/30 10:52:15;;;;;;;30.47;15.93;;;;;;;;;;5093319;28;20035;-60
2020/12/30 10:54:42;;;;;;;29.00;15.40;;;;;;;;;;5092616;28;20031;-59
2020/12/30 10:57:08;;;;;;;28.52;15.27;;;;;;;;;;5074943;28;20016;-60
2020/12/30 10:59:33;;;;;;;30.33;16.00;;;;;;;;;;5093282;28;20031;-60
2020/12/30 11:01:59;;;;;;;32.30;16.93;;;;;;;;;;5074163;28;20517;-59
2020/12/30 11:04:24;;;;;;;29.48;15.98;;;;;;;;;;5093012;28;20409;-60
2020/12/30 11:06:50;;;;;;;35.43;16.40;;;;;;;;;;5092403;28;20495;-61
2020/12/30 11:09:15;;;;;;;29.37;15.27;;;;;;;;;;5093675;28;20031;-60
2020/12/30 11:11:40;;;;;;;29.20;15.00;;;;;;;;;;5092666;28;20383;-60
2020/12/30 11:14:06;;;;;;;27.50;15.60;;;;;;;;;;5093067;28;20015;-61
2020/12/30 11:16:31;;;;;;;25.92;13.48;;;;;;;;;;5093073;28;20058;-61
2020/12/30 11:18:57;;;;;;;28.93;13.57;;;;;;;;;;5092518;28;20376;-60
2020/12/30 11:21:22;;;;;;;25.40;12.23;;;;;;;;;;5092813;28;20409;-62
2020/12/30 11:23:48;;;;;;;26.77;11.70;;;;;;;;;;5091274;28;20031;-59
2020/12/30 11:26:13;;;;;;;16.70;9.40;;;;;;;;;;5092654;28;20472;-60
2020/12/30 11:28:38;;;;;;;17.87;9.90;;;;;;;;;;5091855;28;20036;-59
2020/12/30 11:31:05;;;;;;;18.77;10.33;;;;;;;;;;5092535;28;20028;-61
2020/12/30 11:33:31;;;;;;;;;;;;;;;;;;5093104;28;20039;-60
2020/12/30 11:35:56;;;;;;;18.67;9.60;;;;;;;;;;5091663;28;20230;-62
2020/12/30 11:38:22;;;;;;;17.13;9.40;;;;;;;;;;5092004;28;20044;-61
2020/12/30 11:40:47;;;;;;;21.77;9.67;;;;;;;;;;5091545;28;20028;-59
2020/12/30 11:43:12;;;;;;;21.73;9.40;;;;;;;;;;5092554;28;20034;-61
2020/12/30 11:45:38;;;;;;;16.63;9.03;;;;;;;;;;5091999;28;20048;-60
2020/12/30 11:48:03;;;;;;;17.43;9.07;;;;;;;;;;5092438;28;20036;-61
2020/12/30 11:50:32;;;;;;;18.27;8.43;;;;;;;;;;5092299;28;20055;-61
2020/12/30 11:52:57;;;;;;;14.02;8.80;;;;;;;;;;5073587;28;20267;-61
2020/12/30 11:55:23;;;;;;;11.40;7.17;;;;;;;;;;5092380;28;20024;-61
2020/12/30 11:57:48;;;;;;;14.50;8.47;;;;;;;;;;5091376;28;20039;-61
2020/12/30 12:00:13;;;;;;;12.60;7.50;;;;;;;;;;5092537;28;20487;-60
2020/12/30 12:02:39;;;;;;;11.87;7.43;;;;;;;;;;5091160;28;20055;-59
2020/12/30 12:05:09;;;;;;;19.03;9.50;;;;;;;;;;5092087;28;20055;-61
2020/12/30 12:07:34;;;;;;;14.27;8.32;;;;;;;;;;5091885;28;20083;-59
2020/12/30 12:10:00;;;;;;;17.33;9.63;;;;;;;;;;5090877;28;20426;-60
2020/12/30 12:12:25;;;;;;;19.57;10.10;;;;;;;;;;5091897;28;20028;-60
2020/12/30 12:14:50;;;;;;;15.03;10.17;;;;;;;;;;5091163;28;20032;-60
2020/12/30 12:17:16;;;;;;;22.80;11.30;;;;;;;;;;5092059;28;20016;-60
2020/12/30 12:19:41;;;;;;;20.43;11.07;;;;;;;;;;5073459;28;20167;-61
2020/12/30 12:22:06;;;;;;;23.47;11.83;;;;;;;;;;5091211;28;20111;-61
2020/12/30 12:24:32;;;;;;;20.57;10.90;;;;;;;;;;5073048;28;20039;-61
2020/12/30 12:26:57;;;;;;;22.07;11.13;;;;;;;;;;5090665;28;20020;-60
2020/12/30 12:29:22;;;;;;;24.23;9.90;;;;;;;;;;5091760;28;20035;-61
2020/12/30 12:32:01;;;;;;;16.17;9.67;;;;;;;;;;5090877;28;20543;-61
2020/12/30 12:34:26;;;;;;;19.27;9.68;;;;;;;;;;5091148;28;20028;-60
2020/12/30 12:36:52;;;;;;;23.97;11.73;;;;;;;;;;5090974;28;20328;-61
2020/12/30 12:39:17;;;;;;;18.50;10.93;;;;;;;;;;5091191;28;20499;-62
2020/12/30 12:41:42;;;;;;;32.50;12.03;;;;;;;;;;5090776;28;20420;-58
2020/12/30 12:44:08;;;;;;;22.83;10.80;;;;;;;;;;5090881;28;20430;-61
2020/12/30 12:46:33;;;;;;;27.47;11.60;;;;;;;;;;5091532;28;20540;-62
2020/12/30 12:48:58;;;;;;;27.33;11.00;;;;;;;;;;5071913;28;20472;-61
2020/12/30 12:51:23;;;;;;;20.33;11.17;;;;;;;;;;5091040;28;20108;-61
2020/12/30 12:53:49;;;;;;;22.40;12.10;;;;;;;;;;5072432;28;20028;-61
2020/12/30 12:56:15;;;;;;;40.20;13.17;;;;;;;;;;5069622;28;20221;-60
2020/12/30 12:58:40;;;;;;;33.13;10.75;;;;;;;;;;5091199;28;20058;-60
2020/12/30 13:01:06;;;;;;;29.37;9.73;;;;;;;;;;5072424;28;20098;-61
2020/12/30 13:03:32;;;;;;;37.05;12.25;;;;;;;;;;5072788;28;20478;-60
2020/12/30 13:05:57;;;;;;;34.87;11.07;;;;;;;;;;5090974;28;20032;-61
2020/12/30 13:08:23;;;;;;;36.55;13.90;;;;;;;;;;5090899;28;20086;-61
2020/12/30 13:10:48;;;;;;;45.90;13.67;;;;;;;;;;5090309;28;20063;-60
2020/12/30 13:13:15;;;;;;;40.00;11.33;;;;;;;;;;5090785;28;20040;-61
2020/12/30 13:15:40;;;;;;;33.40;10.40;;;;;;;;;;5091202;28;20501;-60
2020/12/30 13:18:05;;;;;;;23.10;6.93;;;;;;;;;;5090576;28;20036;-60
2020/12/30 13:20:31;;;;;;;28.60;9.90;;;;;;;;;;5091136;28;20110;-60
2020/12/30 13:22:56;;;;;;;13.80;4.93;;;;;;;;;;5090541;28;20467;-60
2020/12/30 13:25:21;;;;;;;26.43;7.97;;;;;;;;;;5091469;28;20439;-60
2020/12/30 13:27:47;;;;;;;51.37;11.53;;;;;;;;;;5087265;28;20068;-60
2020/12/30 13:30:12;;;;;;;14.70;5.23;;;;;;;;;;5090417;28;20077;-58
2020/12/30 13:32:37;;;;;;;12.03;3.33;;;;;;;;;;5072728;28;20049;-60
2020/12/30 13:35:02;;;;;;;10.30;3.70;;;;;;;;;;5089692;28;20028;-60
2020/12/30 13:37:28;;;;;;;9.40;3.53;;;;;;;;;;5090612;28;20073;-61
2020/12/30 13:39:53;;;;;;;7.27;3.30;;;;;;;;;;5089818;28;20050;-61
2020/12/30 13:42:18;;;;;;;5.50;2.30;;;;;;;;;;5090053;28;20060;-60
2020/12/30 13:44:44;;;;;;;4.30;2.40;;;;;;;;;;5089784;28;20117;-60
2020/12/30 13:47:09;;;;;;;10.63;3.20;;;;;;;;;;5089293;28;20428;-59
2020/12/30 13:49:34;;;;;;;6.07;2.57;;;;;;;;;;5071677;28;20063;-59
2020/12/30 13:52:00;;;;;;;10.67;3.40;;;;;;;;;;5070860;28;20491;-59
2020/12/30 13:54:25;;;;;;;7.87;3.27;;;;;;;;;;5089192;28;20067;-58
2020/12/30 13:56:50;;;;;;;11.80;3.50;;;;;;;;;;5085469;28;20111;-58
2020/12/30 13:59:16;;;;;;;5.17;2.50;;;;;;;;;;5089619;28;20107;-59
2020/12/30 14:01:42;;;;;;;7.80;3.55;;;;;;;;;;5093150;28;20016;-59
2020/12/30 14:04:07;;;;;;;6.67;3.13;;;;;;;;;;5092305;28;20047;-59
2020/12/30 14:06:32;;;;;;;7.50;2.80;;;;;;;;;;5092529;28;20027;-59
2020/12/30 14:08:58;;;;;;;6.47;3.00;;;;;;;;;;5092117;28;20022;-60
2020/12/30 14:11:23;;;;;;;6.53;3.13;;;;;;;;;;5092714;28;20028;-59
2020/12/30 14:13:48;;;;;;;8.60;4.17;;;;;;;;;;5092529;28;20028;-59
2020/12/30 14:16:14;;;;;;;8.00;3.87;;;;;;;;;;5074446;28;20411;-58
2020/12/30 14:18:40;;;;;;;5.80;2.27;;;;;;;;;;5092649;28;20368;-60